createdAt,value
2018-03-23T00:01:26.952Z,73.39
2018-03-23T00:03:55.438Z,73.19
2018-03-23T00:06:23.953Z,72.80
2018-03-23T00:08:52.437Z,72.82
2018-03-23T00:11:20.887Z,73.03
2018-03-23T00:13:49.346Z,72.84
2018-03-23T00:16:17.826Z,72.94
2018-03-23T00:18:46.347Z,73.62
2018-03-23T00:21:14.830Z,74.06
2018-03-23T00:23:43.310Z,73.69
2018-03-23T00:26:11.754Z,73.73
2018-03-23T00:28:40.238Z,73.67
2018-03-23T00:31:08.694Z,73.15
2018-03-23T00:33:37.166Z,73.66
2018-03-23T00:36:05.647Z,72.83
2018-03-23T00:38:34.130Z,72.32
2018-03-23T00:41:02.620Z,72.30
2018-03-23T00:43:31.067Z,71.79
2018-03-23T00:45:59.582Z,71.45
2018-03-23T00:48:28.030Z,71.45
2018-03-23T00:50:56.590Z,70.85
2018-03-23T00:53:25.094Z,70.56
2018-03-23T00:55:53.661Z,70.76
2018-03-23T00:58:22.130Z,71.06
2018-03-23T01:00:50.598Z,70.93
2018-03-23T01:03:19.118Z,70.90
2018-03-23T01:05:47.638Z,71.04
2018-03-23T01:08:16.123Z,70.85
2018-03-23T01:10:44.574Z,70.85
2018-03-23T01:13:13.076Z,71.13
2018-03-23T01:15:41.581Z,71.12
2018-03-23T01:18:10.075Z,71.21
2018-03-23T01:20:38.556Z,71.57
2018-03-23T01:23:07.042Z,72.16
2018-03-23T01:25:35.499Z,72.07
2018-03-23T01:28:04.036Z,72.70
2018-03-23T01:30:32.486Z,72.54
2018-03-23T01:33:00.982Z,72.80
2018-03-23T01:35:29.452Z,73.18
2018-03-23T01:37:58.014Z,72.99
2018-03-23T01:40:26.463Z,73.19
2018-03-23T01:42:54.964Z,73.69
2018-03-23T01:45:23.463Z,74.11
2018-03-23T01:47:51.954Z,74.16
2018-03-23T01:50:20.429Z,74.25
2018-03-23T01:52:48.918Z,73.99
2018-03-23T01:55:17.393Z,73.03
2018-03-23T01:57:45.843Z,73.11
2018-03-23T02:00:14.342Z,72.64
2018-03-23T02:02:42.837Z,72.40
2018-03-23T02:05:11.312Z,72.51
2018-03-23T02:07:39.801Z,72.61
2018-03-23T02:10:08.343Z,72.81
2018-03-23T02:12:36.825Z,72.98
2018-03-23T02:15:05.293Z,72.54
2018-03-23T02:17:33.790Z,72.55
2018-03-23T02:20:02.250Z,72.66
2018-03-23T02:22:30.743Z,72.80
2018-03-23T02:24:59.213Z,72.91
2018-03-23T02:27:27.721Z,72.64
2018-03-23T02:29:56.240Z,72.36
2018-03-23T02:32:24.687Z,72.37
2018-03-23T02:34:53.172Z,71.86
2018-03-23T02:37:21.695Z,71.61
2018-03-23T02:39:50.145Z,72.15
2018-03-23T02:42:18.645Z,72.15
2018-03-23T02:44:47.174Z,71.94
2018-03-23T02:47:15.622Z,71.86
2018-03-23T02:49:44.165Z,71.53
2018-03-23T02:52:12.627Z,71.30
2018-03-23T02:54:41.115Z,70.85
2018-03-23T02:57:09.576Z,70.52
2018-03-23T02:59:38.023Z,70.94
2018-03-23T03:02:06.538Z,70.82
2018-03-23T03:04:35.020Z,70.90
2018-03-23T03:07:03.507Z,71.07
2018-03-23T03:09:31.977Z,71.17
2018-03-23T03:12:00.465Z,71.25
2018-03-23T03:14:28.910Z,71.23
2018-03-23T03:16:57.410Z,71.04
2018-03-23T03:19:25.867Z,71.22
2018-03-23T03:21:54.334Z,71.65
2018-03-23T03:24:22.810Z,71.91
2018-03-23T03:26:51.242Z,71.43
2018-03-23T03:29:19.718Z,71.34
2018-03-23T03:31:48.197Z,71.11
2018-03-23T03:34:16.734Z,71.10
2018-03-23T03:36:45.178Z,71.43
2018-03-23T03:39:13.673Z,71.72
2018-03-23T03:41:42.134Z,71.99
2018-03-23T03:44:10.650Z,72.13
2018-03-23T03:46:39.126Z,72.06
2018-03-23T03:49:07.614Z,72.07
2018-03-23T03:51:36.069Z,71.87
2018-03-23T03:54:04.573Z,71.81
2018-03-23T03:56:33.057Z,71.92
2018-03-23T03:59:01.562Z,72.23
2018-03-23T04:01:30.046Z,72.10
2018-03-23T04:03:58.558Z,71.52
2018-03-23T04:06:27.042Z,71.57
2018-03-23T04:08:55.581Z,71.79
2018-03-23T04:11:24.034Z,71.66
2018-03-23T04:13:52.498Z,71.76
2018-03-23T04:16:20.970Z,71.57
2018-03-23T04:18:49.422Z,71.12
2018-03-23T04:21:17.910Z,71.13
2018-03-23T04:23:46.356Z,71.42
2018-03-23T04:26:14.837Z,71.21
2018-03-23T04:28:43.314Z,70.63
2018-03-23T04:31:11.755Z,70.93
2018-03-23T04:33:40.230Z,70.73
2018-03-23T04:36:08.674Z,70.66
2018-03-23T04:38:37.146Z,70.71
2018-03-23T04:41:05.595Z,70.93
2018-03-23T04:43:34.096Z,70.82
2018-03-23T04:46:02.546Z,70.83
2018-03-23T04:48:31.039Z,71.27
2018-03-23T04:50:59.490Z,70.96
2018-03-23T04:53:28.010Z,70.74
2018-03-23T04:55:56.462Z,71.16
2018-03-23T04:58:24.963Z,71.28
2018-03-23T05:00:53.456Z,71.34
2018-03-23T05:03:21.917Z,71.17
2018-03-23T05:05:50.418Z,71.25
2018-03-23T05:08:18.928Z,71.28
2018-03-23T05:10:47.391Z,71.08
2018-03-23T05:13:15.854Z,71.11
2018-03-23T05:15:44.371Z,70.77
2018-03-23T05:18:12.847Z,70.29
2018-03-23T05:20:41.390Z,70.04
2018-03-23T05:23:09.898Z,69.91
2018-03-23T05:25:38.388Z,69.94
2018-03-23T05:28:06.908Z,69.79
2018-03-23T05:30:35.414Z,69.17
2018-03-23T05:33:03.868Z,68.58
2018-03-23T05:35:32.374Z,68.94
2018-03-23T05:38:00.829Z,68.32
2018-03-23T05:40:29.322Z,67.14
2018-03-23T05:42:57.780Z,67.65
2018-03-23T05:45:26.270Z,67.18
2018-03-23T05:47:54.734Z,66.64
2018-03-23T05:50:23.218Z,66.01
2018-03-23T05:52:51.719Z,66.08
2018-03-23T05:55:20.174Z,66.13
2018-03-23T05:57:48.669Z,65.73
2018-03-23T06:00:17.150Z,66.31
2018-03-23T06:02:45.621Z,66.67
2018-03-23T06:05:14.118Z,66.40
2018-03-23T06:07:42.619Z,65.93
2018-03-23T06:10:11.086Z,65.82
2018-03-23T06:12:39.565Z,65.43
2018-03-23T06:15:08.102Z,65.49
2018-03-23T06:17:36.594Z,64.61
2018-03-23T06:20:05.066Z,65.53
2018-03-23T06:22:33.583Z,66.37
2018-03-23T06:25:02.067Z,66.82
2018-03-23T06:27:31.579Z,67.54
2018-03-23T06:30:00.084Z,66.79
2018-03-23T06:32:29.227Z,67.36
2018-03-23T06:34:57.714Z,67.68
2018-03-23T06:37:26.258Z,67.65
2018-03-23T06:39:54.758Z,67.38
2018-03-23T06:42:23.310Z,67.76
2018-03-23T06:44:51.786Z,67.04
2018-03-23T06:47:20.290Z,66.92
2018-03-23T06:49:48.755Z,66.63
2018-03-23T06:52:17.223Z,66.29
2018-03-23T06:54:45.746Z,65.24
2018-03-23T06:57:14.205Z,65.04
2018-03-23T06:59:42.714Z,63.20
2018-03-23T07:02:11.213Z,63.90
2018-03-23T07:04:39.689Z,63.10
2018-03-23T07:07:08.195Z,61.36
2018-03-23T07:09:36.849Z,60.00
2018-03-23T07:12:05.433Z,60.47
2018-03-23T07:14:33.915Z,60.20
2018-03-23T07:17:02.463Z,60.65
2018-03-23T07:19:31.048Z,61.36
2018-03-23T07:21:59.601Z,62.13
2018-03-23T07:24:28.116Z,61.96
2018-03-23T07:26:56.615Z,61.39
2018-03-23T07:29:25.154Z,60.05
2018-03-23T07:31:53.627Z,58.40
2018-03-23T07:34:22.136Z,57.96
2018-03-23T07:36:50.634Z,58.88
2018-03-23T07:39:19.348Z,58.90
2018-03-23T07:41:47.838Z,58.80
2018-03-23T07:44:16.370Z,59.04
2018-03-23T07:46:44.852Z,59.46
2018-03-23T07:49:13.379Z,59.27
2018-03-23T07:51:41.842Z,59.05
2018-03-23T07:54:10.403Z,59.19
2018-03-23T07:56:38.862Z,59.67
2018-03-23T07:59:07.358Z,59.27
2018-03-23T08:01:35.818Z,58.99
2018-03-23T08:04:04.278Z,60.70
2018-03-23T08:06:32.774Z,59.69
2018-03-23T08:09:01.245Z,62.07
2018-03-23T08:11:29.746Z,58.80
2018-03-23T08:13:58.194Z,59.20
2018-03-23T08:16:26.678Z,58.84
2018-03-23T08:18:55.125Z,59.70
2018-03-23T08:21:23.914Z,59.11
2018-03-23T08:23:52.402Z,59.68
2018-03-23T08:26:20.910Z,59.45
2018-03-23T08:28:49.376Z,59.52
2018-03-23T08:31:17.878Z,59.61
2018-03-23T08:33:46.351Z,59.68
2018-03-23T08:36:14.810Z,59.45
2018-03-23T08:38:43.363Z,60.46
2018-03-23T08:41:11.814Z,59.65
2018-03-23T08:43:40.292Z,59.24
2018-03-23T08:46:08.810Z,59.32
2018-03-23T08:48:37.290Z,59.03
2018-03-23T08:51:05.754Z,57.83
2018-03-23T08:53:34.302Z,58.37
2018-03-23T08:56:02.747Z,58.46
2018-03-23T08:58:31.302Z,58.03
2018-03-23T09:00:59.773Z,58.07
2018-03-23T09:03:28.242Z,58.48
2018-03-23T09:05:56.730Z,57.22
2018-03-23T09:08:25.210Z,56.88
2018-03-23T09:10:53.734Z,56.19
2018-03-23T09:13:22.218Z,57.39
2018-03-23T09:15:50.709Z,54.63
2018-03-23T09:18:19.253Z,55.49
2018-03-23T09:20:47.802Z,54.73
2018-03-23T09:23:16.298Z,55.20
2018-03-23T09:25:44.808Z,55.80
2018-03-23T09:28:16.963Z,55.06
2018-03-23T09:30:45.482Z,55.27
2018-03-23T09:33:13.943Z,54.94
2018-03-23T09:35:42.414Z,54.27
2018-03-23T09:38:10.954Z,54.13
2018-03-23T09:40:39.463Z,52.13
2018-03-23T09:43:07.906Z,51.78
2018-03-23T09:45:36.363Z,52.41
2018-03-23T09:48:04.879Z,52.38
2018-03-23T09:50:33.382Z,51.24
2018-03-23T09:53:01.847Z,51.89
2018-03-23T09:55:30.335Z,51.63
2018-03-23T09:57:58.814Z,49.96
2018-03-23T10:00:27.361Z,49.88
2018-03-23T10:02:55.862Z,50.20
2018-03-23T10:05:24.320Z,48.87
2018-03-23T10:07:52.852Z,49.68
2018-03-23T10:10:21.346Z,49.79
2018-03-23T10:12:49.826Z,50.65
2018-03-23T10:15:18.274Z,51.46
2018-03-23T10:17:46.778Z,50.06
2018-03-23T10:20:15.281Z,50.30
2018-03-23T10:22:43.743Z,50.41
2018-03-23T10:25:12.225Z,49.87
2018-03-23T10:27:40.714Z,49.32
2018-03-23T10:30:09.209Z,48.96
2018-03-23T10:32:37.710Z,48.29
2018-03-23T10:35:06.254Z,48.12
2018-03-23T10:37:34.725Z,46.99
2018-03-23T10:40:03.202Z,47.06
2018-03-23T10:42:31.691Z,48.77
2018-03-23T10:45:00.211Z,48.34
2018-03-23T10:47:28.669Z,47.51
2018-03-23T10:49:57.182Z,47.27
2018-03-23T10:52:25.656Z,46.87
2018-03-23T10:54:54.155Z,49.04
2018-03-23T10:57:22.649Z,48.97
2018-03-23T10:59:51.102Z,49.12
2018-03-23T11:05:24.506Z,51.14
2018-03-23T11:10:34.160Z,51.05
2018-03-23T11:13:02.615Z,50.11
2018-03-23T11:15:31.120Z,51.09
2018-03-23T11:17:59.604Z,49.86
2018-03-23T11:20:28.154Z,48.95
2018-03-23T11:25:28.885Z,49.61
2018-03-23T11:27:57.374Z,49.99
2018-03-23T11:30:25.876Z,50.10
2018-03-23T11:32:54.421Z,49.59
2018-03-23T11:35:22.947Z,48.91
2018-03-23T11:37:51.550Z,47.16
2018-03-23T11:40:20.034Z,47.10
2018-03-23T11:42:48.612Z,48.16
2018-03-23T11:45:17.103Z,48.59
2018-03-23T11:47:45.613Z,49.91
2018-03-23T11:50:14.070Z,50.47
2018-03-23T11:52:42.534Z,50.03
2018-03-23T11:55:11.038Z,49.08
2018-03-23T11:57:39.634Z,49.32
2018-03-23T12:00:08.151Z,50.10
2018-03-23T12:02:36.672Z,49.56
2018-03-23T12:05:05.169Z,49.71
2018-03-23T12:07:33.666Z,49.12
2018-03-23T12:10:02.132Z,49.12
2018-03-23T12:12:30.649Z,49.84
2018-03-23T12:14:59.124Z,49.62
2018-03-23T12:17:27.619Z,49.88
2018-03-23T12:19:56.107Z,50.19
2018-03-23T12:22:24.565Z,48.98
2018-03-23T12:24:53.070Z,49.63
2018-03-23T12:27:21.530Z,50.26
2018-03-23T12:29:50.030Z,48.91
2018-03-23T12:32:18.497Z,49.11
2018-03-23T12:34:47.010Z,48.37
2018-03-23T12:37:15.510Z,49.61
2018-03-23T12:39:44.047Z,48.02
2018-03-23T12:42:12.502Z,50.12
2018-03-23T12:44:41.054Z,48.26
2018-03-23T12:47:09.518Z,48.15
2018-03-23T12:49:37.998Z,47.33
2018-03-23T12:52:06.499Z,47.27
2018-03-23T12:54:35.035Z,49.84
2018-03-23T12:57:03.494Z,48.14
2018-03-23T12:59:32.031Z,48.41
2018-03-23T13:02:00.530Z,47.10
2018-03-23T13:04:28.987Z,47.46
2018-03-23T13:06:57.490Z,48.68
2018-03-23T13:09:26.001Z,46.80
2018-03-23T13:11:54.486Z,46.63
2018-03-23T13:14:22.986Z,47.05
2018-03-23T13:16:51.486Z,46.90
2018-03-23T13:19:19.942Z,47.66
2018-03-23T13:21:48.434Z,48.47
2018-03-23T13:24:16.971Z,48.07
2018-03-23T13:26:45.431Z,48.24
2018-03-23T13:29:13.881Z,48.17
2018-03-23T13:31:42.372Z,49.41
2018-03-23T13:34:10.850Z,50.47
2018-03-23T13:36:39.388Z,49.71
2018-03-23T13:39:07.894Z,48.88
2018-03-23T13:41:36.358Z,49.67
2018-03-23T13:44:04.835Z,49.35
2018-03-23T13:46:33.356Z,49.06
2018-03-23T13:49:01.873Z,49.65
2018-03-23T13:51:30.335Z,48.67
2018-03-23T13:53:58.912Z,48.50
2018-03-23T13:56:27.371Z,48.42
2018-03-23T13:59:01.334Z,48.27
2018-03-23T14:01:35.382Z,48.63
2018-03-23T14:04:03.870Z,49.26
2018-03-23T14:06:32.360Z,49.17
2018-03-23T14:09:00.981Z,49.08
2018-03-23T14:11:29.478Z,49.28
2018-03-23T14:13:57.937Z,50.15
2018-03-23T14:16:26.509Z,49.56
2018-03-23T14:18:54.997Z,50.27
2018-03-23T14:21:23.482Z,49.95
2018-03-23T14:23:51.977Z,49.78
2018-03-23T14:26:20.459Z,49.78
2018-03-23T14:28:49.036Z,50.02
2018-03-23T14:31:17.515Z,50.26
2018-03-23T14:33:46.029Z,50.05
2018-03-23T14:36:14.482Z,51.43
2018-03-23T14:38:42.946Z,51.23
2018-03-23T14:41:11.465Z,50.78
2018-03-23T14:43:39.940Z,51.79
2018-03-23T14:46:08.435Z,51.73
2018-03-23T14:48:36.918Z,51.83
2018-03-23T14:51:05.410Z,52.21
2018-03-23T14:53:33.933Z,52.33
2018-03-23T14:56:02.462Z,52.50
2018-03-23T14:58:36.362Z,52.09
2018-03-23T15:01:04.907Z,52.73
2018-03-23T15:03:33.388Z,52.56
2018-03-23T15:06:01.966Z,52.14
2018-03-23T15:08:30.429Z,52.74
2018-03-23T15:10:58.950Z,51.04
2018-03-23T15:13:27.407Z,51.46
2018-03-23T15:15:55.937Z,50.67
2018-03-23T15:18:24.418Z,52.08
2018-03-23T15:20:52.870Z,51.33
2018-03-23T15:23:21.362Z,52.47
2018-03-23T15:25:49.858Z,52.37
2018-03-23T15:28:18.346Z,52.68
2018-03-23T15:30:47.078Z,52.81
2018-03-23T15:33:15.533Z,52.25
2018-03-23T15:35:44.018Z,52.01
2018-03-23T15:38:12.519Z,51.89
2018-03-23T15:40:41.018Z,51.83
2018-03-23T15:43:09.523Z,51.85
2018-03-23T15:45:38.023Z,52.73
2018-03-23T15:48:06.481Z,53.59
2018-03-23T15:50:35.009Z,52.98
2018-03-23T15:53:03.499Z,53.77
2018-03-23T15:55:31.986Z,54.99
2018-03-23T15:58:00.488Z,54.78
2018-03-23T16:00:28.946Z,54.98
2018-03-23T16:02:57.444Z,55.71
2018-03-23T16:05:25.930Z,55.23
2018-03-23T16:07:54.428Z,55.18
2018-03-23T16:10:22.886Z,55.15
2018-03-23T16:12:51.386Z,54.99
2018-03-23T16:15:19.888Z,55.27
2018-03-23T16:17:48.338Z,54.61
2018-03-23T16:20:16.777Z,55.52
2018-03-23T16:22:45.255Z,55.49
2018-03-23T16:25:13.742Z,56.11
2018-03-23T16:27:42.190Z,56.77
2018-03-23T16:30:10.706Z,56.79
2018-03-23T16:32:39.206Z,57.53
2018-03-23T16:35:07.655Z,58.02
2018-03-23T16:37:36.105Z,58.48
2018-03-23T16:40:04.626Z,58.72
2018-03-23T16:42:33.082Z,59.36
2018-03-23T16:45:01.570Z,59.34
2018-03-23T16:47:30.014Z,59.82
2018-03-23T16:49:58.517Z,60.49
2018-03-23T16:52:27.003Z,60.61
2018-03-23T16:54:55.491Z,60.58
2018-03-23T16:57:23.944Z,60.97
2018-03-23T16:59:52.432Z,61.18
2018-03-23T17:02:20.886Z,61.57
2018-03-23T17:04:49.333Z,61.50
2018-03-23T17:07:17.827Z,62.11
2018-03-23T17:09:46.311Z,62.55
2018-03-23T17:12:14.766Z,62.56
2018-03-23T17:14:43.253Z,62.60
2018-03-23T17:17:11.782Z,62.62
2018-03-23T17:19:40.280Z,62.95
2018-03-23T17:22:08.749Z,62.78
2018-03-23T17:24:37.239Z,62.88
2018-03-23T17:27:05.718Z,62.53
2018-03-23T17:29:34.157Z,62.41
2018-03-23T17:32:02.663Z,62.33
2018-03-23T17:34:31.182Z,62.17
2018-03-23T17:36:59.690Z,62.31
2018-03-23T17:39:28.144Z,62.41
2018-03-23T17:41:56.638Z,62.15
2018-03-23T17:44:25.169Z,62.42
2018-03-23T17:46:53.622Z,62.76
2018-03-23T17:49:22.111Z,62.92
2018-03-23T17:51:50.562Z,62.87
2018-03-23T17:54:19.050Z,62.62
2018-03-23T17:56:47.513Z,62.63
2018-03-23T17:59:16.008Z,62.60
2018-03-23T18:01:44.473Z,62.65
2018-03-23T18:04:12.971Z,62.75
2018-03-23T18:06:41.518Z,63.08
2018-03-23T18:09:10.055Z,63.07
2018-03-23T18:11:38.548Z,63.38
2018-03-23T18:14:07.315Z,63.57
2018-03-23T18:16:36.081Z,63.54
2018-03-23T18:19:04.845Z,63.64
2018-03-23T18:21:33.672Z,63.26
2018-03-23T18:24:02.480Z,63.44
2018-03-23T18:26:31.151Z,63.61
2018-03-23T18:28:59.682Z,63.69
2018-03-23T18:31:28.142Z,63.94
2018-03-23T18:33:56.651Z,64.77
2018-03-23T18:36:25.107Z,64.67
2018-03-23T18:38:53.605Z,65.18
2018-03-23T18:41:22.102Z,65.48
2018-03-23T18:43:50.562Z,65.21
2018-03-23T18:46:19.054Z,65.26
2018-03-23T18:48:47.513Z,65.27
2018-03-23T18:51:16.010Z,65.99
2018-03-23T18:53:44.453Z,66.05
2018-03-23T18:56:12.906Z,65.82
2018-03-23T18:58:41.394Z,66.59
2018-03-23T19:01:09.910Z,66.99
2018-03-23T19:03:38.410Z,67.85
2018-03-23T19:06:06.880Z,68.07
2018-03-23T19:08:35.420Z,68.23
2018-03-23T19:11:03.922Z,68.27
2018-03-23T19:13:32.390Z,68.57
2018-03-23T19:16:00.838Z,68.57
2018-03-23T19:18:29.330Z,68.88
2018-03-23T19:20:57.798Z,68.59
2018-03-23T19:23:26.301Z,68.61
2018-03-23T19:25:54.762Z,68.32
2018-03-23T19:28:23.244Z,68.41
2018-03-23T19:30:51.743Z,68.18
2018-03-23T19:33:20.252Z,68.61
2018-03-23T19:35:48.713Z,68.28
2018-03-23T19:38:17.213Z,68.54
2018-03-23T19:40:45.742Z,68.60
2018-03-23T19:43:14.199Z,68.95
2018-03-23T19:45:42.693Z,68.12
2018-03-23T19:48:11.143Z,67.43
2018-03-23T19:50:39.638Z,66.90
2018-03-23T19:53:08.082Z,66.20
2018-03-23T19:55:36.573Z,65.79
2018-03-23T19:58:05.020Z,66.00
2018-03-23T20:00:33.507Z,66.64
2018-03-23T20:03:01.970Z,66.53
2018-03-23T20:05:30.458Z,67.12
2018-03-23T20:07:58.964Z,67.17
2018-03-23T20:10:27.425Z,66.22
2018-03-23T20:12:55.909Z,66.17
2018-03-23T20:15:24.358Z,66.32
2018-03-23T20:17:58.438Z,66.68
2018-03-23T20:20:32.385Z,67.33
2018-03-23T20:23:00.875Z,66.98
2018-03-23T20:25:29.331Z,67.25
2018-03-23T20:28:03.182Z,67.30
2018-03-23T20:30:31.640Z,67.57
2018-03-23T20:33:00.164Z,66.23
2018-03-23T20:35:28.622Z,66.46
2018-03-23T20:37:57.084Z,66.18
2018-03-23T20:40:25.562Z,66.63
2018-03-23T20:42:54.003Z,66.94
2018-03-23T20:45:22.501Z,67.68
2018-03-23T20:47:50.966Z,67.28
2018-03-23T20:50:19.455Z,67.25
2018-03-23T20:52:47.903Z,67.50
2018-03-23T20:55:16.391Z,67.63
2018-03-23T20:57:44.833Z,67.18
2018-03-23T21:00:13.331Z,67.23
2018-03-23T21:02:41.822Z,65.62
2018-03-23T21:05:10.299Z,65.56
2018-03-23T21:07:38.749Z,65.09
2018-03-23T21:10:07.232Z,64.67
2018-03-23T21:12:35.686Z,65.04
2018-03-23T21:15:04.283Z,64.89
2018-03-23T21:17:32.742Z,65.18
2018-03-23T21:20:01.189Z,65.23
2018-03-23T21:22:29.714Z,64.84
2018-03-23T21:24:58.162Z,65.04
2018-03-23T21:27:26.641Z,65.25
2018-03-23T21:29:55.126Z,64.74
2018-03-23T21:32:23.613Z,64.95
2018-03-23T21:34:52.098Z,65.11
2018-03-23T21:37:20.542Z,64.59
2018-03-23T21:39:49.040Z,65.13
2018-03-23T21:42:17.485Z,64.67
2018-03-23T21:44:45.971Z,64.54
2018-03-23T21:47:14.474Z,64.83
2018-03-23T21:49:42.920Z,64.90
2018-03-23T21:52:11.409Z,65.06
2018-03-23T21:54:39.890Z,65.21
2018-03-23T21:57:08.376Z,64.96
2018-03-23T21:59:36.827Z,64.99
2018-03-23T22:02:05.395Z,64.11
2018-03-23T22:04:33.842Z,64.05
2018-03-23T22:07:02.322Z,64.20
2018-03-23T22:09:30.792Z,64.38
2018-03-23T22:11:59.282Z,64.72
2018-03-23T22:14:27.763Z,64.85
2018-03-23T22:16:56.335Z,64.70
2018-03-23T22:19:24.814Z,64.90
2018-03-23T22:21:53.346Z,64.69
2018-03-23T22:24:21.863Z,64.98
2018-03-23T22:26:50.328Z,65.13
2018-03-23T22:29:18.842Z,65.05
2018-03-23T22:31:47.290Z,64.97
2018-03-23T22:34:15.738Z,65.15
2018-03-23T22:36:44.234Z,65.35
2018-03-23T22:39:12.710Z,65.90
2018-03-23T22:41:41.157Z,65.57
2018-03-23T22:44:09.652Z,65.64
2018-03-23T22:46:38.159Z,65.61
2018-03-23T22:49:06.646Z,65.71
2018-03-23T22:51:35.094Z,66.43
2018-03-23T22:54:03.534Z,66.16
2018-03-23T22:56:32.005Z,66.42
2018-03-23T22:59:00.458Z,67.12
2018-03-23T23:01:28.960Z,66.81
2018-03-23T23:03:57.473Z,66.38
2018-03-23T23:06:25.973Z,66.21
2018-03-23T23:08:54.423Z,65.83
2018-03-23T23:11:22.918Z,65.79
2018-03-23T23:13:51.403Z,65.82
2018-03-23T23:16:19.854Z,66.43
2018-03-23T23:18:48.346Z,66.89
2018-03-23T23:21:16.812Z,66.88
2018-03-23T23:23:45.310Z,67.67
2018-03-23T23:26:13.779Z,67.21
2018-03-23T23:28:42.281Z,67.32
2018-03-23T23:31:10.738Z,67.49
2018-03-23T23:33:39.245Z,67.49
2018-03-23T23:36:07.766Z,67.39
2018-03-23T23:38:36.222Z,67.22
2018-03-23T23:41:04.694Z,66.85
2018-03-23T23:43:33.200Z,67.16
2018-03-23T23:46:01.706Z,67.44
2018-03-23T23:48:30.165Z,68.30
2018-03-23T23:50:58.666Z,68.53
2018-03-23T23:53:27.158Z,68.55
2018-03-23T23:55:55.695Z,68.70
2018-03-23T23:58:24.154Z,69.33
